sensor_id;sensor_type;location;lat;lon;timestamp;temperature;humidity
31819;DHT22;18384;48.860;9.188;2023-04-24T00:00:11;12.70;99.90
31819;DHT22;18384;48.860;9.188;2023-04-24T00:02:41;12.70;99.90
31819;DHT22;18384;48.860;9.188;2023-04-24T00:05:12;12.70;99.90
31819;DHT22;18384;48.860;9.188;2023-04-24T00:07:40;12.70;99.90
31819;DHT22;18384;48.860;9.188;2023-04-24T00:10:07;12.70;99.90
31819;DHT22;18384;48.860;9.188;2023-04-24T00:12:34;12.70;99.90
31819;DHT22;18384;48.860;9.188;2023-04-24T00:15:00;12.70;99.90
31819;DHT22;18384;48.860;9.188;2023-04-24T00:17:26;12.80;99.90
31819;DHT22;18384;48.860;9.188;2023-04-24T00:19:52;12.80;99.90
31819;DHT22;18384;48.860;9.188;2023-04-24T00:22:27;12.80;99.90
31819;DHT22;18384;48.860;9.188;2023-04-24T00:24:54;12.70;99.90
31819;DHT22;18384;48.860;9.188;2023-04-24T00:27:20;12.70;99.90
31819;DHT22;18384;48.860;9.188;2023-04-24T00:29:46;12.80;99.90
31819;DHT22;18384;48.860;9.188;2023-04-24T00:32:13;12.90;99.90
31819;DHT22;18384;48.860;9.188;2023-04-24T00:34:39;12.90;99.70
31819;DHT22;18384;48.860;9.188;2023-04-24T00:37:05;12.80;99.70
31819;DHT22;18384;48.860;9.188;2023-04-24T00:39:32;12.90;99.80
31819;DHT22;18384;48.860;9.188;2023-04-24T00:41:58;12.80;99.90
31819;DHT22;18384;48.860;9.188;2023-04-24T00:44:24;12.80;99.90
31819;DHT22;18384;48.860;9.188;2023-04-24T00:46:51;12.80;99.80
31819;DHT22;18384;48.860;9.188;2023-04-24T00:49:21;12.80;99.70
31819;DHT22;18384;48.860;9.188;2023-04-24T00:51:47;12.80;99.90
31819;DHT22;18384;48.860;9.188;2023-04-24T00:54:15;12.90;99.90
31819;DHT22;18384;48.860;9.188;2023-04-24T00:56:42;12.80;99.60
31819;DHT22;18384;48.860;9.188;2023-04-24T00:59:09;12.90;99.50
31819;DHT22;18384;48.860;9.188;2023-04-24T01:01:35;12.90;99.60
31819;DHT22;18384;48.860;9.188;2023-04-24T01:04:01;12.90;99.60
31819;DHT22;18384;48.860;9.188;2023-04-24T01:06:29;12.90;99.60
31819;DHT22;18384;48.860;9.188;2023-04-24T01:08:57;12.90;99.50
31819;DHT22;18384;48.860;9.188;2023-04-24T01:11:25;13.00;99.40
31819;DHT22;18384;48.860;9.188;2023-04-24T01:13:51;13.00;99.70
31819;DHT22;18384;48.860;9.188;2023-04-24T01:16:17;13.00;99.20
31819;DHT22;18384;48.860;9.188;2023-04-24T01:18:46;13.00;99.30
31819;DHT22;18384;48.860;9.188;2023-04-24T01:21:14;12.90;99.40
31819;DHT22;18384;48.860;9.188;2023-04-24T01:23:44;13.50;99.60
31819;DHT22;18384;48.860;9.188;2023-04-24T01:26:11;13.00;99.40
31819;DHT22;18384;48.860;9.188;2023-04-24T01:28:38;13.00;99.50
31819;DHT22;18384;48.860;9.188;2023-04-24T01:31:05;13.00;99.70
31819;DHT22;18384;48.860;9.188;2023-04-24T01:33:31;13.00;99.70
31819;DHT22;18384;48.860;9.188;2023-04-24T01:35:57;12.90;99.40
31819;DHT22;18384;48.860;9.188;2023-04-24T01:38:23;12.90;99.60
31819;DHT22;18384;48.860;9.188;2023-04-24T01:40:50;12.90;99.80
31819;DHT22;18384;48.860;9.188;2023-04-24T01:43:17;12.90;99.60
31819;DHT22;18384;48.860;9.188;2023-04-24T01:45:43;12.90;99.50
31819;DHT22;18384;48.860;9.188;2023-04-24T01:48:09;12.90;99.70
31819;DHT22;18384;48.860;9.188;2023-04-24T01:50:36;12.90;99.70
31819;DHT22;18384;48.860;9.188;2023-04-24T01:53:02;12.70;99.80
31819;DHT22;18384;48.860;9.188;2023-04-24T01:55:28;12.70;99.90
31819;DHT22;18384;48.860;9.188;2023-04-24T01:57:55;12.70;99.80
31819;DHT22;18384;48.860;9.188;2023-04-24T02:00:22;12.60;99.90
31819;DHT22;18384;48.860;9.188;2023-04-24T02:02:49;12.70;99.90
31819;DHT22;18384;48.860;9.188;2023-04-24T02:05:16;12.70;99.90
31819;DHT22;18384;48.860;9.188;2023-04-24T02:07:42;12.60;99.90
31819;DHT22;18384;48.860;9.188;2023-04-24T02:10:09;12.50;99.90
31819;DHT22;18384;48.860;9.188;2023-04-24T02:12:35;12.60;99.90
31819;DHT22;18384;48.860;9.188;2023-04-24T02:15:02;12.60;99.90
31819;DHT22;18384;48.860;9.188;2023-04-24T02:17:28;12.70;99.90
31819;DHT22;18384;48.860;9.188;2023-04-24T02:19:54;12.70;99.90
31819;DHT22;18384;48.860;9.188;2023-04-24T02:22:20;12.60;99.90
31819;DHT22;18384;48.860;9.188;2023-04-24T02:24:46;12.60;99.90
31819;DHT22;18384;48.860;9.188;2023-04-24T02:27:12;12.60;99.90
31819;DHT22;18384;48.860;9.188;2023-04-24T02:29:39;12.60;99.90
31819;DHT22;18384;48.860;9.188;2023-04-24T02:32:05;12.70;99.90
31819;DHT22;18384;48.860;9.188;2023-04-24T02:34:31;12.60;99.90
31819;DHT22;18384;48.860;9.188;2023-04-24T02:36:57;12.70;99.90
31819;DHT22;18384;48.860;9.188;2023-04-24T02:39:23;13.70;99.90
31819;DHT22;18384;48.860;9.188;2023-04-24T02:41:49;12.60;99.90
31819;DHT22;18384;48.860;9.188;2023-04-24T02:44:15;12.70;99.90
31819;DHT22;18384;48.860;9.188;2023-04-24T02:46:43;12.70;99.90
31819;DHT22;18384;48.860;9.188;2023-04-24T02:49:08;12.70;99.90
31819;DHT22;18384;48.860;9.188;2023-04-24T02:51:35;12.60;99.90
31819;DHT22;18384;48.860;9.188;2023-04-24T02:54:03;12.70;99.90
31819;DHT22;18384;48.860;9.188;2023-04-24T02:56:29;12.70;99.90
31819;DHT22;18384;48.860;9.188;2023-04-24T02:58:55;12.70;99.90
31819;DHT22;18384;48.860;9.188;2023-04-24T03:01:21;12.60;99.90
31819;DHT22;18384;48.860;9.188;2023-04-24T03:03:48;12.50;99.90
31819;DHT22;18384;48.860;9.188;2023-04-24T03:06:14;12.60;99.90
31819;DHT22;18384;48.860;9.188;2023-04-24T03:08:41;12.60;99.90
31819;DHT22;18384;48.860;9.188;2023-04-24T03:11:07;12.50;99.90
31819;DHT22;18384;48.860;9.188;2023-04-24T03:13:33;12.50;99.90
31819;DHT22;18384;48.860;9.188;2023-04-24T03:15:59;12.40;99.90
31819;DHT22;18384;48.860;9.188;2023-04-24T03:18:25;12.40;99.90
31819;DHT22;18384;48.860;9.188;2023-04-24T03:20:51;12.40;99.90
31819;DHT22;18384;48.860;9.188;2023-04-24T03:23:17;12.40;99.90
31819;DHT22;18384;48.860;9.188;2023-04-24T03:25:43;12.30;99.90
31819;DHT22;18384;48.860;9.188;2023-04-24T03:28:09;13.80;99.90
31819;DHT22;18384;48.860;9.188;2023-04-24T03:30:36;12.30;99.90
31819;DHT22;18384;48.860;9.188;2023-04-24T03:33:02;12.80;99.90
31819;DHT22;18384;48.860;9.188;2023-04-24T03:35:28;12.30;99.90
31819;DHT22;18384;48.860;9.188;2023-04-24T03:37:54;12.30;99.90
31819;DHT22;18384;48.860;9.188;2023-04-24T03:40:20;12.30;99.90
31819;DHT22;18384;48.860;9.188;2023-04-24T03:42:46;12.30;99.90
31819;DHT22;18384;48.860;9.188;2023-04-24T03:45:12;12.20;99.90
31819;DHT22;18384;48.860;9.188;2023-04-24T03:47:38;12.10;99.90
31819;DHT22;18384;48.860;9.188;2023-04-24T03:50:05;12.10;99.90
31819;DHT22;18384;48.860;9.188;2023-04-24T03:52:31;12.00;99.90
31819;DHT22;18384;48.860;9.188;2023-04-24T03:54:57;12.00;99.90
31819;DHT22;18384;48.860;9.188;2023-04-24T03:57:23;12.00;99.90
31819;DHT22;18384;48.860;9.188;2023-04-24T03:59:50;11.90;99.90
31819;DHT22;18384;48.860;9.188;2023-04-24T04:02:16;12.00;99.90
31819;DHT22;18384;48.860;9.188;2023-04-24T04:04:43;12.00;99.90
31819;DHT22;18384;48.860;9.188;2023-04-24T04:07:09;12.00;99.90
31819;DHT22;18384;48.860;9.188;2023-04-24T04:09:36;12.10;99.90
31819;DHT22;18384;48.860;9.188;2023-04-24T04:12:02;12.10;99.90
31819;DHT22;18384;48.860;9.188;2023-04-24T04:14:29;12.20;99.90
31819;DHT22;18384;48.860;9.188;2023-04-24T04:16:55;12.20;99.90
31819;DHT22;18384;48.860;9.188;2023-04-24T04:19:21;12.30;99.90
31819;DHT22;18384;48.860;9.188;2023-04-24T04:21:47;12.20;99.90
31819;DHT22;18384;48.860;9.188;2023-04-24T04:24:19;12.20;99.90
31819;DHT22;18384;48.860;9.188;2023-04-24T04:26:46;12.40;99.90
31819;DHT22;18384;48.860;9.188;2023-04-24T04:29:13;12.50;99.90
31819;DHT22;18384;48.860;9.188;2023-04-24T04:31:39;12.40;99.90
31819;DHT22;18384;48.860;9.188;2023-04-24T04:34:05;12.50;99.90
31819;DHT22;18384;48.860;9.188;2023-04-24T04:36:33;12.40;99.90
31819;DHT22;18384;48.860;9.188;2023-04-24T04:39:02;12.40;99.90
31819;DHT22;18384;48.860;9.188;2023-04-24T04:41:29;12.40;99.90
31819;DHT22;18384;48.860;9.188;2023-04-24T04:43:55;12.40;99.90
31819;DHT22;18384;48.860;9.188;2023-04-24T04:46:24;12.30;99.90
31819;DHT22;18384;48.860;9.188;2023-04-24T04:48:52;12.30;99.90
31819;DHT22;18384;48.860;9.188;2023-04-24T04:51:19;12.30;99.90
31819;DHT22;18384;48.860;9.188;2023-04-24T04:53:45;12.30;99.90
31819;DHT22;18384;48.860;9.188;2023-04-24T04:56:11;12.30;99.90
31819;DHT22;18384;48.860;9.188;2023-04-24T04:58:37;12.30;99.90
31819;DHT22;18384;48.860;9.188;2023-04-24T05:01:04;12.30;99.90
31819;DHT22;18384;48.860;9.188;2023-04-24T05:03:30;12.30;99.90
31819;DHT22;18384;48.860;9.188;2023-04-24T05:05:57;12.20;99.90
31819;DHT22;18384;48.860;9.188;2023-04-24T05:08:23;12.10;99.90
31819;DHT22;18384;48.860;9.188;2023-04-24T05:10:49;12.10;99.90
31819;DHT22;18384;48.860;9.188;2023-04-24T05:13:16;12.10;99.90
31819;DHT22;18384;48.860;9.188;2023-04-24T05:15:42;12.10;99.90
31819;DHT22;18384;48.860;9.188;2023-04-24T05:18:08;12.10;99.90
31819;DHT22;18384;48.860;9.188;2023-04-24T05:20:34;12.10;99.90
31819;DHT22;18384;48.860;9.188;2023-04-24T05:23:00;12.10;99.90
31819;DHT22;18384;48.860;9.188;2023-04-24T05:25:26;12.10;99.90
31819;DHT22;18384;48.860;9.188;2023-04-24T05:27:52;12.10;99.90
31819;DHT22;18384;48.860;9.188;2023-04-24T05:30:19;12.10;99.90
31819;DHT22;18384;48.860;9.188;2023-04-24T05:32:45;12.20;99.90
31819;DHT22;18384;48.860;9.188;2023-04-24T05:35:11;12.20;99.90
31819;DHT22;18384;48.860;9.188;2023-04-24T05:37:37;12.20;99.90
31819;DHT22;18384;48.860;9.188;2023-04-24T05:40:04;12.30;99.90
31819;DHT22;18384;48.860;9.188;2023-04-24T05:42:31;12.20;99.90
31819;DHT22;18384;48.860;9.188;2023-04-24T05:44:57;12.30;99.90
31819;DHT22;18384;48.860;9.188;2023-04-24T05:47:23;12.30;99.90
31819;DHT22;18384;48.860;9.188;2023-04-24T05:49:50;12.30;99.90
31819;DHT22;18384;48.860;9.188;2023-04-24T05:52:16;12.20;99.90
31819;DHT22;18384;48.860;9.188;2023-04-24T05:54:42;12.10;99.90
31819;DHT22;18384;48.860;9.188;2023-04-24T05:57:08;12.20;99.90
31819;DHT22;18384;48.860;9.188;2023-04-24T05:59:37;12.20;99.90
31819;DHT22;18384;48.860;9.188;2023-04-24T06:02:07;12.20;99.90
31819;DHT22;18384;48.860;9.188;2023-04-24T06:04:33;12.20;99.90
31819;DHT22;18384;48.860;9.188;2023-04-24T06:06:59;12.30;99.90
31819;DHT22;18384;48.860;9.188;2023-04-24T06:09:25;12.30;99.90
31819;DHT22;18384;48.860;9.188;2023-04-24T06:11:52;12.30;99.90
31819;DHT22;18384;48.860;9.188;2023-04-24T06:14:19;12.10;99.90
31819;DHT22;18384;48.860;9.188;2023-04-24T06:16:45;12.20;99.90
31819;DHT22;18384;48.860;9.188;2023-04-24T06:19:11;12.10;99.90
31819;DHT22;18384;48.860;9.188;2023-04-24T06:21:37;12.00;99.90
31819;DHT22;18384;48.860;9.188;2023-04-24T06:24:03;12.10;99.90
31819;DHT22;18384;48.860;9.188;2023-04-24T06:26:30;12.30;99.90
31819;DHT22;18384;48.860;9.188;2023-04-24T06:28:56;12.40;99.90
31819;DHT22;18384;48.860;9.188;2023-04-24T06:31:24;12.60;99.90
31819;DHT22;18384;48.860;9.188;2023-04-24T06:33:50;12.70;99.70
31819;DHT22;18384;48.860;9.188;2023-04-24T06:36:17;12.70;99.10
31819;DHT22;18384;48.860;9.188;2023-04-24T06:38:43;12.80;99.50
31819;DHT22;18384;48.860;9.188;2023-04-24T06:41:10;13.00;98.90
31819;DHT22;18384;48.860;9.188;2023-04-24T06:43:36;13.10;99.20
31819;DHT22;18384;48.860;9.188;2023-04-24T06:46:02;13.20;98.50
31819;DHT22;18384;48.860;9.188;2023-04-24T06:48:29;13.30;98.20
31819;DHT22;18384;48.860;9.188;2023-04-24T06:50:55;13.30;97.50
31819;DHT22;18384;48.860;9.188;2023-04-24T06:53:21;13.40;98.00
31819;DHT22;18384;48.860;9.188;2023-04-24T06:55:47;13.40;97.60
31819;DHT22;18384;48.860;9.188;2023-04-24T06:58:13;13.50;96.70
31819;DHT22;18384;48.860;9.188;2023-04-24T07:00:40;13.60;97.50
31819;DHT22;18384;48.860;9.188;2023-04-24T07:03:06;13.80;97.20
31819;DHT22;18384;48.860;9.188;2023-04-24T07:05:32;14.00;96.60
31819;DHT22;18384;48.860;9.188;2023-04-24T07:08:03;14.00;97.40
31819;DHT22;18384;48.860;9.188;2023-04-24T07:10:29;14.00;96.50
31819;DHT22;18384;48.860;9.188;2023-04-24T07:12:55;14.10;96.90
31819;DHT22;18384;48.860;9.188;2023-04-24T07:15:22;14.30;96.80
31819;DHT22;18384;48.860;9.188;2023-04-24T07:17:49;14.30;95.80
31819;DHT22;18384;48.860;9.188;2023-04-24T07:20:16;14.40;96.60
31819;DHT22;18384;48.860;9.188;2023-04-24T07:22:42;14.40;95.10
31819;DHT22;18384;48.860;9.188;2023-04-24T07:25:08;14.20;94.40
31819;DHT22;18384;48.860;9.188;2023-04-24T07:27:35;14.10;95.20
31819;DHT22;18384;48.860;9.188;2023-04-24T07:30:03;14.00;94.60
31819;DHT22;18384;48.860;9.188;2023-04-24T07:32:29;13.90;94.10
31819;DHT22;18384;48.860;9.188;2023-04-24T07:34:55;13.90;94.60
31819;DHT22;18384;48.860;9.188;2023-04-24T07:37:22;14.00;94.70
31819;DHT22;18384;48.860;9.188;2023-04-24T07:39:48;14.10;94.10
31819;DHT22;18384;48.860;9.188;2023-04-24T07:42:15;14.30;93.50
31819;DHT22;18384;48.860;9.188;2023-04-24T07:44:41;14.50;93.20
31819;DHT22;18384;48.860;9.188;2023-04-24T07:47:08;14.50;93.20
31819;DHT22;18384;48.860;9.188;2023-04-24T07:49:34;14.30;93.60
31819;DHT22;18384;48.860;9.188;2023-04-24T07:52:00;14.40;93.30
31819;DHT22;18384;48.860;9.188;2023-04-24T07:54:28;14.30;92.50
31819;DHT22;18384;48.860;9.188;2023-04-24T07:56:54;14.20;92.00
31819;DHT22;18384;48.860;9.188;2023-04-24T07:59:20;14.20;93.90
31819;DHT22;18384;48.860;9.188;2023-04-24T08:01:46;14.10;92.20
31819;DHT22;18384;48.860;9.188;2023-04-24T08:04:13;14.20;92.80
31819;DHT22;18384;48.860;9.188;2023-04-24T08:06:39;14.20;93.00
31819;DHT22;18384;48.860;9.188;2023-04-24T08:09:05;14.40;92.90
31819;DHT22;18384;48.860;9.188;2023-04-24T08:11:31;14.40;92.60
31819;DHT22;18384;48.860;9.188;2023-04-24T08:13:58;14.30;92.70
31819;DHT22;18384;48.860;9.188;2023-04-24T08:16:24;14.20;93.20
31819;DHT22;18384;48.860;9.188;2023-04-24T08:18:50;14.30;93.40
31819;DHT22;18384;48.860;9.188;2023-04-24T08:21:16;14.30;93.50
31819;DHT22;18384;48.860;9.188;2023-04-24T08:23:44;14.40;93.20
31819;DHT22;18384;48.860;9.188;2023-04-24T08:26:11;14.50;92.70
31819;DHT22;18384;48.860;9.188;2023-04-24T08:28:38;14.30;92.50
31819;DHT22;18384;48.860;9.188;2023-04-24T08:31:04;14.10;91.90
31819;DHT22;18384;48.860;9.188;2023-04-24T08:33:30;14.00;91.80
31819;DHT22;18384;48.860;9.188;2023-04-24T08:36:03;13.80;91.90
31819;DHT22;18384;48.860;9.188;2023-04-24T08:38:30;13.80;92.00
31819;DHT22;18384;48.860;9.188;2023-04-24T08:40:59;13.80;92.30
31819;DHT22;18384;48.860;9.188;2023-04-24T08:43:26;13.80;91.40
31819;DHT22;18384;48.860;9.188;2023-04-24T08:45:54;13.80;91.40
31819;DHT22;18384;48.860;9.188;2023-04-24T08:48:22;13.80;91.10
31819;DHT22;18384;48.860;9.188;2023-04-24T08:50:50;13.80;91.30
31819;DHT22;18384;48.860;9.188;2023-04-24T08:53:18;13.90;90.90
31819;DHT22;18384;48.860;9.188;2023-04-24T08:55:47;14.10;90.50
31819;DHT22;18384;48.860;9.188;2023-04-24T08:58:16;14.20;89.90
31819;DHT22;18384;48.860;9.188;2023-04-24T09:00:43;14.20;88.40
31819;DHT22;18384;48.860;9.188;2023-04-24T09:03:14;14.20;89.00
31819;DHT22;18384;48.860;9.188;2023-04-24T09:05:43;14.20;89.40
31819;DHT22;18384;48.860;9.188;2023-04-24T09:08:13;14.10;88.90
31819;DHT22;18384;48.860;9.188;2023-04-24T09:10:40;14.20;89.50
31819;DHT22;18384;48.860;9.188;2023-04-24T09:13:08;14.20;90.10
31819;DHT22;18384;48.860;9.188;2023-04-24T09:15:36;14.30;89.70
31819;DHT22;18384;48.860;9.188;2023-04-24T09:18:03;14.40;89.60
31819;DHT22;18384;48.860;9.188;2023-04-24T09:20:30;14.30;88.80
31819;DHT22;18384;48.860;9.188;2023-04-24T09:22:57;14.20;90.30
31819;DHT22;18384;48.860;9.188;2023-04-24T09:25:33;14.00;90.60
31819;DHT22;18384;48.860;9.188;2023-04-24T09:28:02;13.80;89.80
31819;DHT22;18384;48.860;9.188;2023-04-24T09:30:29;13.70;90.00
31819;DHT22;18384;48.860;9.188;2023-04-24T09:33:16;13.70;90.80
31819;DHT22;18384;48.860;9.188;2023-04-24T09:35:49;13.80;90.90
31819;DHT22;18384;48.860;9.188;2023-04-24T09:38:16;13.80;91.30
31819;DHT22;18384;48.860;9.188;2023-04-24T09:40:42;13.90;91.60
31819;DHT22;18384;48.860;9.188;2023-04-24T09:43:11;13.80;91.70
31819;DHT22;18384;48.860;9.188;2023-04-24T09:45:39;13.80;91.50
31819;DHT22;18384;48.860;9.188;2023-04-24T09:48:09;14.00;91.50
31819;DHT22;18384;48.860;9.188;2023-04-24T09:50:35;14.30;91.10
31819;DHT22;18384;48.860;9.188;2023-04-24T09:53:03;14.60;90.20
31819;DHT22;18384;48.860;9.188;2023-04-24T09:55:31;14.70;90.60
31819;DHT22;18384;48.860;9.188;2023-04-24T09:57:57;14.70;90.30
31819;DHT22;18384;48.860;9.188;2023-04-24T10:00:30;14.50;89.40
31819;DHT22;18384;48.860;9.188;2023-04-24T10:03:04;14.30;89.80
31819;DHT22;18384;48.860;9.188;2023-04-24T10:05:36;14.30;90.50
31819;DHT22;18384;48.860;9.188;2023-04-24T10:08:08;14.50;89.60
31819;DHT22;18384;48.860;9.188;2023-04-24T10:10:39;14.50;90.00
31819;DHT22;18384;48.860;9.188;2023-04-24T10:13:09;14.60;90.10
31819;DHT22;18384;48.860;9.188;2023-04-24T10:15:37;14.70;89.00
31819;DHT22;18384;48.860;9.188;2023-04-24T10:18:07;14.80;88.50
31819;DHT22;18384;48.860;9.188;2023-04-24T10:20:36;15.00;87.70
31819;DHT22;18384;48.860;9.188;2023-04-24T10:23:03;15.00;87.00
31819;DHT22;18384;48.860;9.188;2023-04-24T10:25:31;14.70;86.60
31819;DHT22;18384;48.860;9.188;2023-04-24T10:28:00;14.60;87.70
31819;DHT22;18384;48.860;9.188;2023-04-24T10:30:31;14.40;87.20
31819;DHT22;18384;48.860;9.188;2023-04-24T10:33:06;14.30;86.20
31819;DHT22;18384;48.860;9.188;2023-04-24T10:35:39;14.20;87.00
31819;DHT22;18384;48.860;9.188;2023-04-24T10:38:15;14.10;87.40
31819;DHT22;18384;48.860;9.188;2023-04-24T10:40:44;13.90;88.60
31819;DHT22;18384;48.860;9.188;2023-04-24T10:43:10;13.80;88.70
31819;DHT22;18384;48.860;9.188;2023-04-24T10:45:38;13.70;87.90
31819;DHT22;18384;48.860;9.188;2023-04-24T10:48:06;13.50;87.40
31819;DHT22;18384;48.860;9.188;2023-04-24T10:50:52;13.50;88.00
31819;DHT22;18384;48.860;9.188;2023-04-24T10:53:21;13.60;88.80
31819;DHT22;18384;48.860;9.188;2023-04-24T10:55:58;13.60;88.70
31819;DHT22;18384;48.860;9.188;2023-04-24T11:01:29;13.80;87.90
31819;DHT22;18384;48.860;9.188;2023-04-24T11:04:02;14.10;89.10
31819;DHT22;18384;48.860;9.188;2023-04-24T11:06:36;14.30;88.30
31819;DHT22;18384;48.860;9.188;2023-04-24T11:09:06;14.40;86.80
31819;DHT22;18384;48.860;9.188;2023-04-24T11:11:35;14.70;87.80
31819;DHT22;18384;48.860;9.188;2023-04-24T11:14:06;15.10;86.60
31819;DHT22;18384;48.860;9.188;2023-04-24T11:16:45;15.30;87.10
31819;DHT22;18384;48.860;9.188;2023-04-24T11:19:21;15.40;86.10
31819;DHT22;18384;48.860;9.188;2023-04-24T11:21:59;15.50;84.30
31819;DHT22;18384;48.860;9.188;2023-04-24T11:24:48;15.50;85.20
31819;DHT22;18384;48.860;9.188;2023-04-24T11:27:20;15.60;85.80
31819;DHT22;18384;48.860;9.188;2023-04-24T11:30:00;15.60;84.40
31819;DHT22;18384;48.860;9.188;2023-04-24T11:32:28;15.60;82.40
31819;DHT22;18384;48.860;9.188;2023-04-24T11:38:03;15.70;84.10
31819;DHT22;18384;48.860;9.188;2023-04-24T11:40:30;15.60;84.90
31819;DHT22;18384;48.860;9.188;2023-04-24T11:42:56;15.40;84.70
31819;DHT22;18384;48.860;9.188;2023-04-24T11:45:30;15.40;84.80
31819;DHT22;18384;48.860;9.188;2023-04-24T11:47:56;15.30;84.30
31819;DHT22;18384;48.860;9.188;2023-04-24T11:50:25;15.10;86.70
31819;DHT22;18384;48.860;9.188;2023-04-24T11:52:53;14.90;86.40
31819;DHT22;18384;48.860;9.188;2023-04-24T11:55:26;14.80;87.80
31819;DHT22;18384;48.860;9.188;2023-04-24T11:57:56;14.80;87.90
31819;DHT22;18384;48.860;9.188;2023-04-24T12:00:28;14.90;87.70
31819;DHT22;18384;48.860;9.188;2023-04-24T12:03:09;15.10;89.10
31819;DHT22;18384;48.860;9.188;2023-04-24T12:05:37;15.20;87.50
31819;DHT22;18384;48.860;9.188;2023-04-24T12:08:04;15.40;86.80
31819;DHT22;18384;48.860;9.188;2023-04-24T12:10:31;15.50;84.20
31819;DHT22;18384;48.860;9.188;2023-04-24T12:12:58;15.60;84.40
31819;DHT22;18384;48.860;9.188;2023-04-24T12:15:25;15.50;84.90
31819;DHT22;18384;48.860;9.188;2023-04-24T12:17:53;15.50;85.40
31819;DHT22;18384;48.860;9.188;2023-04-24T12:20:31;15.40;85.90
31819;DHT22;18384;48.860;9.188;2023-04-24T12:22:59;15.10;87.00
31819;DHT22;18384;48.860;9.188;2023-04-24T12:25:31;14.90;85.50
31819;DHT22;18384;48.860;9.188;2023-04-24T12:28:37;14.60;86.60
31819;DHT22;18384;48.860;9.188;2023-04-24T12:31:04;14.50;86.80
31819;DHT22;18384;48.860;9.188;2023-04-24T12:33:35;14.50;86.20
31819;DHT22;18384;48.860;9.188;2023-04-24T12:36:01;14.60;86.80
31819;DHT22;18384;48.860;9.188;2023-04-24T12:38:28;14.60;85.50
31819;DHT22;18384;48.860;9.188;2023-04-24T12:41:09;14.70;85.80
31819;DHT22;18384;48.860;9.188;2023-04-24T12:43:37;14.70;87.20
31819;DHT22;18384;48.860;9.188;2023-04-24T12:46:03;14.70;87.50
31819;DHT22;18384;48.860;9.188;2023-04-24T12:48:30;14.80;86.80
31819;DHT22;18384;48.860;9.188;2023-04-24T12:51:00;15.00;87.10
31819;DHT22;18384;48.860;9.188;2023-04-24T12:53:27;14.90;86.50
31819;DHT22;18384;48.860;9.188;2023-04-24T12:55:55;14.90;86.80
31819;DHT22;18384;48.860;9.188;2023-04-24T12:58:22;14.90;86.70
31819;DHT22;18384;48.860;9.188;2023-04-24T13:00:48;14.80;87.90
31819;DHT22;18384;48.860;9.188;2023-04-24T13:03:14;14.70;89.40
31819;DHT22;18384;48.860;9.188;2023-04-24T13:05:41;14.50;91.10
31819;DHT22;18384;48.860;9.188;2023-04-24T13:08:08;14.30;92.50
31819;DHT22;18384;48.860;9.188;2023-04-24T13:10:34;14.30;92.70
31819;DHT22;18384;48.860;9.188;2023-04-24T13:13:00;14.30;92.60
31819;DHT22;18384;48.860;9.188;2023-04-24T13:15:26;14.30;91.30
31819;DHT22;18384;48.860;9.188;2023-04-24T13:17:52;14.20;90.60
31819;DHT22;18384;48.860;9.188;2023-04-24T13:20:19;14.20;90.60
31819;DHT22;18384;48.860;9.188;2023-04-24T13:22:45;14.20;90.10
31819;DHT22;18384;48.860;9.188;2023-04-24T13:25:11;14.10;90.50
31819;DHT22;18384;48.860;9.188;2023-04-24T13:27:38;14.20;90.50
31819;DHT22;18384;48.860;9.188;2023-04-24T13:30:05;14.20;90.40
31819;DHT22;18384;48.860;9.188;2023-04-24T13:32:32;14.20;90.30
31819;DHT22;18384;48.860;9.188;2023-04-24T13:34:58;14.20;90.20
31819;DHT22;18384;48.860;9.188;2023-04-24T13:37:25;14.30;90.10
31819;DHT22;18384;48.860;9.188;2023-04-24T13:39:51;14.40;90.20
31819;DHT22;18384;48.860;9.188;2023-04-24T13:42:17;14.50;90.10
31819;DHT22;18384;48.860;9.188;2023-04-24T13:44:44;14.60;89.10
31819;DHT22;18384;48.860;9.188;2023-04-24T13:47:10;14.70;89.20
31819;DHT22;18384;48.860;9.188;2023-04-24T13:49:36;14.70;90.40
31819;DHT22;18384;48.860;9.188;2023-04-24T13:52:02;14.70;90.30
31819;DHT22;18384;48.860;9.188;2023-04-24T13:54:28;14.80;90.50
31819;DHT22;18384;48.860;9.188;2023-04-24T13:56:57;14.70;90.20
31819;DHT22;18384;48.860;9.188;2023-04-24T13:59:23;14.70;90.50
31819;DHT22;18384;48.860;9.188;2023-04-24T14:01:50;14.60;89.10
31819;DHT22;18384;48.860;9.188;2023-04-24T14:04:16;14.40;90.20
31819;DHT22;18384;48.860;9.188;2023-04-24T14:06:43;14.30;90.10
31819;DHT22;18384;48.860;9.188;2023-04-24T14:09:09;14.20;90.40
31819;DHT22;18384;48.860;9.188;2023-04-24T14:11:35;14.20;90.60
31819;DHT22;18384;48.860;9.188;2023-04-24T14:14:01;14.30;90.80
31819;DHT22;18384;48.860;9.188;2023-04-24T14:16:28;14.30;90.90
31819;DHT22;18384;48.860;9.188;2023-04-24T14:18:54;14.20;90.90
31819;DHT22;18384;48.860;9.188;2023-04-24T14:21:20;14.10;90.50
31819;DHT22;18384;48.860;9.188;2023-04-24T14:23:46;14.20;90.70
31819;DHT22;18384;48.860;9.188;2023-04-24T14:26:12;14.30;91.00
31819;DHT22;18384;48.860;9.188;2023-04-24T14:28:38;14.50;90.30
31819;DHT22;18384;48.860;9.188;2023-04-24T14:31:24;14.70;90.30
31819;DHT22;18384;48.860;9.188;2023-04-24T14:33:51;14.90;88.90
31819;DHT22;18384;48.860;9.188;2023-04-24T14:36:17;14.90;89.70
31819;DHT22;18384;48.860;9.188;2023-04-24T14:38:43;15.00;88.30
31819;DHT22;18384;48.860;9.188;2023-04-24T14:41:09;15.00;89.00
31819;DHT22;18384;48.860;9.188;2023-04-24T14:43:37;14.90;88.70
31819;DHT22;18384;48.860;9.188;2023-04-24T14:46:04;14.90;89.60
31819;DHT22;18384;48.860;9.188;2023-04-24T14:48:30;14.80;90.00
31819;DHT22;18384;48.860;9.188;2023-04-24T14:50:57;14.80;89.10
31819;DHT22;18384;48.860;9.188;2023-04-24T14:53:24;14.80;89.80
31819;DHT22;18384;48.860;9.188;2023-04-24T14:55:50;14.80;89.40
31819;DHT22;18384;48.860;9.188;2023-04-24T14:58:16;14.80;89.30
31819;DHT22;18384;48.860;9.188;2023-04-24T15:00:42;14.70;87.70
31819;DHT22;18384;48.860;9.188;2023-04-24T15:03:08;14.60;86.70
31819;DHT22;18384;48.860;9.188;2023-04-24T15:05:34;14.40;88.30
31819;DHT22;18384;48.860;9.188;2023-04-24T15:08:00;14.50;89.10
31819;DHT22;18384;48.860;9.188;2023-04-24T15:10:27;14.40;88.80
31819;DHT22;18384;48.860;9.188;2023-04-24T15:12:54;14.40;88.10
31819;DHT22;18384;48.860;9.188;2023-04-24T15:15:20;14.30;87.80
31819;DHT22;18384;48.860;9.188;2023-04-24T15:17:46;14.30;89.10
31819;DHT22;18384;48.860;9.188;2023-04-24T15:20:13;14.20;89.00
31819;DHT22;18384;48.860;9.188;2023-04-24T15:22:39;14.20;90.00
31819;DHT22;18384;48.860;9.188;2023-04-24T15:25:05;14.10;89.20
31819;DHT22;18384;48.860;9.188;2023-04-24T15:27:45;14.00;89.40
31819;DHT22;18384;48.860;9.188;2023-04-24T15:30:12;14.00;88.40
31819;DHT22;18384;48.860;9.188;2023-04-24T15:32:39;14.10;89.80
31819;DHT22;18384;48.860;9.188;2023-04-24T15:35:05;14.20;89.90
31819;DHT22;18384;48.860;9.188;2023-04-24T15:37:32;14.30;90.10